Time;durP1;ratioP1;P1;durP2;ratioP2;P2;SDS_P1;SDS_P2;PMS_P1;PMS_P2;Temp;Humidity;BMP_temperature;BMP_pressure;BME280_temperature;BME280_humidity;BME280_pressure;Samples;Min_cycle;Max_cycle;Signal;HPM_P1;HPM_P2
2023/08/31 00:01:20;;;;;;;3.70;2.83;;;;;;;22.96;65.29;94324.63;5095774;28;20811;-85
2023/08/31 00:03:47;;;;;;;8.50;2.90;;;;;;;22.94;63.78;94313.31;5095519;28;20470;-86
2023/08/31 00:06:14;;;;;;;4.13;3.07;;;;;;;22.97;64.88;94318.22;5043737;28;20444;-87
2023/08/31 00:08:41;;;;;;;5.07;3.50;;;;;;;22.90;63.83;94315.63;5095277;28;20472;-86
2023/08/31 00:11:08;;;;;;;3.50;2.47;;;;;;;22.85;65.21;94315.47;5094986;28;20472;-85
2023/08/31 00:13:35;;;;;;;4.07;3.67;;;;;;;22.95;65.93;94326.47;5094896;28;20446;-85
2023/08/31 00:16:04;;;;;;;7.87;3.63;;;;;;;22.99;64.07;94321.50;5094987;28;20460;-86
2023/08/31 00:18:31;;;;;;;7.93;3.43;;;;;;;22.92;63.88;94326.09;5094903;28;20478;-86
2023/08/31 00:20:59;;;;;;;4.03;3.30;;;;;;;22.86;63.81;94325.13;5094877;28;20982;-86
2023/08/31 00:23:25;;;;;;;7.90;3.20;;;;;;;22.82;63.30;94327.38;5094626;28;20505;-85
2023/08/31 00:25:53;;;;;;;7.90;3.40;;;;;;;22.72;64.37;94319.03;5094862;28;20445;-84
2023/08/31 00:28:21;;;;;;;3.40;2.90;;;;;;;22.70;64.71;94322.94;5095122;28;20532;-86
2023/08/31 00:30:48;;;;;;;4.07;2.80;;;;;;;22.63;64.56;94312.31;5095056;28;20439;-86
2023/08/31 00:33:17;;;;;;;3.30;3.00;;;;;;;22.66;66.09;94325.25;5095123;28;20444;-86
2023/08/31 00:35:45;;;;;;;4.13;3.27;;;;;;;22.71;64.62;94324.59;5094498;28;20443;-86
2023/08/31 00:38:12;;;;;;;4.90;3.57;;;;;;;22.59;65.33;94331.69;5095240;28;20595;-86
2023/08/31 00:40:45;;;;;;;3.30;2.67;;;;;;;22.51;65.19;94332.75;5094689;28;20445;-86
2023/08/31 00:43:12;;;;;;;4.43;3.20;;;;;;;22.55;66.62;94337.47;5095218;28;20511;-85
2023/08/31 00:45:40;;;;;;;4.50;3.70;;;;;;;22.66;66.14;94349.31;5094685;28;20447;-86
2023/08/31 00:48:08;;;;;;;6.10;2.93;;;;;;;22.69;65.16;94342.72;5059337;28;20437;-86
2023/08/31 00:50:36;;;;;;;3.90;3.10;;;;;;;22.72;65.68;94343.09;5094398;28;20480;-85
2023/08/31 00:53:05;;;;;;;4.63;2.80;;;;;;;22.76;64.91;94344.28;5094400;28;20518;-86
2023/08/31 00:55:33;;;;;;;6.57;3.43;;;;;;;22.72;64.23;94343.09;5094828;28;20441;-86
2023/08/31 00:58:00;;;;;;;4.73;2.73;;;;;;;22.65;64.21;94347.69;5094870;28;20468;-86
2023/08/31 01:00:38;;;;;;;3.37;3.00;;;;;;;22.63;64.58;94339.06;5097093;28;20442;-86
2023/08/31 01:03:13;;;;;;;5.60;3.13;;;;;;;22.72;64.10;94344.94;5101961;28;20449;-87
2023/08/31 01:05:49;;;;;;;6.03;3.67;;;;;;;22.68;63.10;94352.59;5099379;28;20792;-86
2023/08/31 01:08:24;;;;;;;2.90;2.60;;;;;;;22.65;64.84;94349.53;5096023;28;20487;-83
2023/08/31 01:11:03;;;;;;;4.60;3.20;;;;;;;22.66;65.20;94349.31;5094243;28;20525;-85
2023/08/31 01:13:33;;;;;;;5.83;3.30;;;;;;;22.70;64.06;94355.06;5094490;28;20505;-85
2023/08/31 01:16:04;;;;;;;4.20;3.20;;;;;;;22.71;65.27;94352.16;5093821;28;20441;-84
2023/08/31 01:18:35;;;;;;;4.30;3.20;;;;;;;22.73;65.18;94355.44;5093645;28;20452;-87
2023/08/31 01:21:10;;;;;;;4.90;3.37;;;;;;;22.75;64.24;94348.00;5093932;28;20452;-85
2023/08/31 01:23:53;;;;;;;4.17;3.00;;;;;;;22.75;64.56;94348.00;5093588;28;20461;-86
2023/08/31 01:26:20;;;;;;;7.03;3.53;;;;;;;22.69;63.77;94354.22;5093266;28;20974;-85
2023/08/31 01:28:47;;;;;;;3.63;3.20;;;;;;;22.70;65.46;94361.22;5093421;28;20446;-85
2023/08/31 01:31:15;;;;;;;5.33;2.87;;;;;;;22.67;64.12;94361.66;5041289;28;20492;-85
2023/08/31 01:34:34;;;;;;;6.20;3.40;;;;;;;22.73;64.83;94368.81;5093536;28;20445;-86
2023/08/31 01:37:06;;;;;;;7.43;2.93;;;;;;;22.76;65.99;94364.88;5093384;28;20996;-86
2023/08/31 01:39:43;;;;;;;3.20;2.90;;;;;;;22.82;65.94;94369.38;5093475;28;20449;-85
2023/08/31 01:42:13;;;;;;;4.67;3.53;;;;;;;22.86;67.40;94359.91;5093896;28;20442;-84
2023/08/31 01:44:41;;;;;;;5.00;3.17;;;;;;;22.95;66.38;94361.25;5093925;28;20442;-86
2023/08/31 01:47:08;;;;;;;5.67;3.20;;;;;;;22.94;63.61;94350.78;5093298;28;20449;-86
2023/08/31 01:49:38;;;;;;;5.10;3.50;;;;;;;22.92;65.05;94355.53;5093139;28;20483;-85
2023/08/31 01:52:06;;;;;;;4.93;3.90;;;;;;;22.76;64.92;94354.19;5093491;28;20552;-86
2023/08/31 01:54:33;;;;;;;5.00;3.17;;;;;;;22.65;66.07;94353.03;5093134;28;20517;-85
2023/08/31 01:57:02;;;;;;;6.03;2.90;;;;;;;22.54;64.65;94356.38;5093048;28;20438;-85
2023/08/31 01:59:29;;;;;;;4.53;2.70;;;;;;;22.52;66.08;94353.94;5093167;28;20482;-85
2023/08/31 02:01:56;;;;;;;4.17;3.20;;;;;;;22.51;65.44;94356.81;5057483;28;20932;-83
2023/08/31 02:04:23;;;;;;;5.57;3.30;;;;;;;22.40;64.87;94353.00;5092883;28;20449;-86
2023/08/31 02:06:50;;;;;;;3.57;3.00;;;;;;;22.31;65.99;94365.00;5093033;28;20447;-85
2023/08/31 02:09:17;;;;;;;2.60;2.40;;;;;;;22.33;66.80;94360.25;5093213;28;20553;-85
2023/08/31 02:11:44;;;;;;;4.23;3.27;;;;;;;22.30;66.11;94367.88;5092550;28;20462;-86
2023/08/31 02:14:12;;;;;;;4.33;3.20;;;;;;;22.22;66.47;94369.75;5094185;28;20443;-85
2023/08/31 02:16:39;;;;;;;5.30;3.17;;;;;;;22.20;67.19;94374.50;5093133;28;20449;-86
2023/08/31 02:19:06;;;;;;;4.90;3.30;;;;;;;22.29;67.18;94366.25;5094134;28;20475;-85
2023/08/31 02:21:33;;;;;;;6.10;3.33;;;;;;;22.36;67.36;94369.69;5094879;28;20459;-86
2023/08/31 02:24:00;;;;;;;3.70;2.97;;;;;;;22.29;67.61;94372.41;5094467;28;20442;-85
2023/08/31 02:26:26;;;;;;;3.27;2.97;;;;;;;22.30;66.47;94359.88;5042688;28;20458;-84
2023/08/31 02:28:53;;;;;;;4.13;3.03;;;;;;;22.33;66.88;94370.13;5093413;28;20450;-85
2023/08/31 02:31:21;;;;;;;3.23;2.90;;;;;;;22.24;68.08;94372.22;5094087;28;20497;-85
2023/08/31 02:33:49;;;;;;;4.30;3.17;;;;;;;22.32;66.63;94373.84;5094850;28;20804;-85
2023/08/31 02:36:16;;;;;;;4.43;3.27;;;;;;;22.25;67.11;94372.00;5094387;28;20440;-85
2023/08/31 02:38:43;;;;;;;9.77;3.13;;;;;;;22.16;67.14;94372.47;5093584;28;20936;-85
2023/08/31 02:41:10;;;;;;;4.80;3.33;;;;;;;22.13;67.53;94383.59;5093698;28;20452;-86
2023/08/31 02:43:37;;;;;;;4.00;3.30;;;;;;;22.04;68.43;94388.38;5092782;28;20436;-85
2023/08/31 02:46:04;;;;;;;6.97;3.50;;;;;;;21.90;68.27;94384.88;5092498;28;20764;-86
2023/08/31 02:48:34;;;;;;;5.60;2.83;;;;;;;21.87;69.04;94381.81;5093152;28;20446;-84
2023/08/31 02:51:02;;;;;;;4.50;2.67;;;;;;;21.80;69.47;94381.84;5101507;28;20851;-85
2023/08/31 02:53:30;;;;;;;5.60;4.07;;;;;;;21.73;68.38;94380.25;5102069;28;20482;-85
2023/08/31 02:55:57;;;;;;;3.93;3.00;;;;;;;21.76;69.40;94382.50;5097029;28;20844;-85
2023/08/31 02:58:24;;;;;;;4.30;3.23;;;;;;;21.82;69.08;94385.13;5096965;28;20937;-85
2023/08/31 03:00:51;;;;;;;3.87;2.93;;;;;;;21.94;69.79;94387.94;5095665;28;20529;-85
2023/08/31 03:03:18;;;;;;;8.53;2.87;;;;;;;21.96;67.71;94386.69;5057157;28;20453;-86
2023/08/31 03:05:47;;;;;;;5.23;3.40;;;;;;;21.96;68.29;94391.22;5093358;28;20458;-86
2023/08/31 03:08:14;;;;;;;4.87;3.43;;;;;;;21.95;67.76;94402.94;5095181;28;20932;-85
2023/08/31 03:10:42;;;;;;;6.00;3.10;;;;;;;21.77;69.32;94400.16;5096548;28;20580;-85
2023/08/31 03:13:08;;;;;;;4.60;3.50;;;;;;;21.77;70.61;94387.63;5095937;28;20949;-84
2023/08/31 03:15:35;;;;;;;8.87;2.77;;;;;;;21.84;68.75;94403.63;5095960;28;20439;-85
2023/08/31 03:18:02;;;;;;;3.60;3.00;;;;;;;21.73;67.63;94405.09;5095874;28;20452;-86
2023/08/31 03:20:29;;;;;;;4.67;3.30;;;;;;;21.57;68.53;94413.56;5095940;28;20458;-84
2023/08/31 03:22:58;;;;;;;3.50;2.80;;;;;;;21.47;69.13;94414.00;5096446;28;20980;-83
2023/08/31 03:25:25;;;;;;;9.70;4.67;;;;;;;21.37;70.98;94415.44;5095991;28;20528;-85
2023/08/31 03:27:54;;;;;;;6.00;3.20;;;;;;;21.34;70.49;94416.66;5097260;28;20437;-86
2023/08/31 03:30:21;;;;;;;3.97;3.10;;;;;;;21.31;69.66;94422.44;5099052;28;21045;-85
2023/08/31 03:32:48;;;;;;;6.50;3.13;;;;;;;21.28;71.62;94420.19;5098153;28;20454;-85
2023/08/31 03:35:15;;;;;;;4.90;3.13;;;;;;;21.32;71.30;94422.22;5097168;28;20438;-84
2023/08/31 03:37:42;;;;;;;6.70;3.60;;;;;;;21.24;72.39;94416.28;5097262;28;20435;-86
2023/08/31 03:40:11;;;;;;;4.57;3.50;;;;;;;21.32;71.88;94416.06;5097633;28;20453;-85
2023/08/31 03:42:37;;;;;;;3.70;2.60;;;;;;;21.44;69.70;94408.25;5045480;28;20949;-85
2023/08/31 03:45:05;;;;;;;3.57;3.20;;;;;;;21.58;71.24;94420.53;5097425;28;20442;-85
2023/08/31 03:47:32;;;;;;;4.13;2.97;;;;;;;21.69;69.05;94419.09;5097131;28;20813;-86
2023/08/31 03:49:59;;;;;;;4.20;3.40;;;;;;;21.70;71.15;94416.22;5097266;28;20474;-85
2023/08/31 03:52:26;;;;;;;7.30;3.57;;;;;;;21.70;68.41;94418.88;5096533;28;20484;-83
2023/08/31 03:54:53;;;;;;;4.33;3.03;;;;;;;21.78;69.70;94420.50;5097009;28;20443;-83
2023/08/31 03:57:21;;;;;;;4.63;3.17;;;;;;;21.68;66.49;94428.91;5095888;28;20445;-84
2023/08/31 03:59:48;;;;;;;3.30;2.93;;;;;;;21.52;68.00;94438.22;5095504;28;20448;-83
2023/08/31 04:02:15;;;;;;;7.17;3.03;;;;;;;21.47;68.09;94442.53;5095761;28;20437;-84
2023/08/31 04:04:42;;;;;;;5.60;2.87;;;;;;;21.34;67.53;94448.69;5095137;28;20438;-83
2023/08/31 04:07:09;;;;;;;3.87;2.77;;;;;;;21.29;70.32;94449.31;5042959;28;20946;-84
2023/08/31 04:09:35;;;;;;;11.73;4.47;;;;;;;21.40;69.39;94452.41;5059777;28;20445;-83
2023/08/31 04:12:02;;;;;;;5.40;3.50;;;;;;;22.40;66.80;94451.09;5095160;28;20938;-82
2023/08/31 04:14:30;;;;;;;5.50;3.20;;;;;;;22.66;65.45;94464.34;5094887;28;20439;-83
2023/08/31 04:16:57;;;;;;;5.07;3.00;;;;;;;22.78;63.58;94469.81;5094380;28;20935;-83
2023/08/31 04:19:24;;;;;;;8.13;3.23;;;;;;;22.77;64.39;94479.69;5094299;28;20445;-83
2023/08/31 04:21:51;;;;;;;5.67;3.00;;;;;;;22.89;62.29;94481.72;5094481;28;20435;-83
2023/08/31 04:24:18;;;;;;;4.37;2.87;;;;;;;23.14;62.63;94487.94;5094495;28;20445;-83
2023/08/31 04:26:45;;;;;;;5.80;3.10;;;;;;;23.55;60.70;94482.03;5094953;28;20442;-83
2023/08/31 04:29:12;;;;;;;3.30;3.00;;;;;;;23.83;59.15;94494.19;5094520;28;20442;-83
2023/08/31 04:31:40;;;;;;;8.40;3.33;;;;;;;24.12;58.93;94488.09;5042457;28;20489;-87
2023/08/31 04:34:07;;;;;;;4.80;3.37;;;;;;;24.46;59.11;94492.06;5095734;28;20440;-87
2023/08/31 04:36:34;;;;;;;4.80;3.10;;;;;;;25.08;56.78;94487.31;5095051;28;20432;-84
2023/08/31 04:39:00;;;;;;;7.97;3.13;;;;;;;25.60;55.07;94487.53;5094456;28;20803;-83
2023/08/31 04:41:27;;;;;;;9.37;3.47;;;;;;;26.02;53.30;94488.28;5094203;28;20790;-83
2023/08/31 04:43:54;;;;;;;9.47;3.00;;;;;;;26.39;52.21;94488.00;5093980;28;20451;-83
2023/08/31 04:46:21;;;;;;;5.07;4.10;;;;;;;26.63;51.12;94486.91;5094663;28;20431;-83
2023/08/31 04:48:49;;;;;;;3.03;2.70;;;;;;;26.43;51.01;94483.78;5094424;28;20443;-83
2023/08/31 04:51:30;;;;;;;3.77;3.00;;;;;;;26.36;53.08;94494.69;5042370;28;20495;-83
2023/08/31 04:53:56;;;;;;;7.83;3.30;;;;;;;26.23;51.79;94492.22;5031835;28;20496;-82
2023/08/31 04:56:23;;;;;;;6.10;3.17;;;;;;;26.10;52.34;94495.97;5073888;28;20437;-83
2023/08/31 04:58:50;;;;;;;5.73;3.33;;;;;;;26.33;51.98;94495.13;5074474;28;20877;-83
2023/08/31 05:01:17;;;;;;;7.07;3.53;;;;;;;26.21;51.18;94486.25;5074270;28;20441;-82
2023/08/31 05:03:44;;;;;;;6.03;2.97;;;;;;;26.55;50.32;94481.88;5074356;28;20437;-84
2023/08/31 05:06:12;;;;;;;4.70;3.93;;;;;;;26.67;50.76;94490.75;5073681;28;20440;-84
2023/08/31 05:08:39;;;;;;;6.50;3.63;;;;;;;26.72;50.45;94488.16;5073508;28;20915;-85
2023/08/31 05:11:06;;;;;;;5.30;3.30;;;;;;;26.99;50.07;94498.38;5073947;28;20538;-86
2023/08/31 05:13:33;;;;;;;5.43;2.80;;;;;;;27.46;48.15;94493.53;5038316;28;20445;-86
2023/08/31 05:15:59;;;;;;;4.70;3.00;;;;;;;27.77;48.64;94490.31;5075024;28;20441;-86
2023/08/31 05:18:26;;;;;;;2.77;2.53;;;;;;;28.15;46.77;94502.19;5073959;28;20433;-84
2023/08/31 05:20:53;;;;;;;5.07;2.93;;;;;;;28.52;46.02;94491.66;5073655;28;20632;-86
2023/08/31 05:23:21;;;;;;;8.97;3.70;;;;;;;28.73;44.82;94495.41;5073851;28;20437;-86
2023/08/31 05:25:48;;;;;;;9.67;3.53;;;;;;;28.97;44.78;94493.28;5073924;28;20440;-86
2023/08/31 05:28:15;;;;;;;5.53;3.50;;;;;;;29.15;44.39;94501.03;5073803;28;20449;-85
2023/08/31 05:30:50;;;;;;;3.07;2.77;;;;;;;29.31;43.46;94483.09;5073304;28;20480;-86
2023/08/31 05:33:17;;;;;;;5.30;3.50;;;;;;;29.48;42.86;94480.28;5073584;28;20468;-86
2023/08/31 05:35:44;;;;;;;4.90;3.10;;;;;;;29.58;43.14;94489.31;5038168;28;20457;-86
2023/08/31 05:38:12;;;;;;;4.10;3.37;;;;;;;29.66;43.24;94488.03;5073210;28;20440;-86
2023/08/31 05:40:45;;;;;;;3.23;3.00;;;;;;;29.71;42.57;94484.53;5073898;28;20452;-87
2023/08/31 05:43:12;;;;;;;6.70;3.03;;;;;;;29.87;41.86;94489.00;5073305;28;20451;-86
2023/08/31 05:45:38;;;;;;;6.77;4.10;;;;;;;29.93;41.99;94498.78;5073451;28;20854;-86
2023/08/31 05:48:06;;;;;;;5.10;3.47;;;;;;;30.06;41.57;94495.63;5075304;28;20574;-86
2023/08/31 05:50:33;;;;;;;4.37;3.10;;;;;;;29.95;41.12;94496.63;5075198;28;20480;-87
2023/08/31 05:53:00;;;;;;;3.67;3.00;;;;;;;29.70;42.80;94493.72;5087683;28;20483;-85
2023/08/31 05:55:26;;;;;;;5.57;2.93;;;;;;;28.40;46.28;94509.88;5074277;28;20447;-86
2023/08/31 05:57:54;;;;;;;5.43;3.23;;;;;;;28.68;47.30;94508.88;5041594;28;20428;-85
2023/08/31 06:00:24;;;;;;;11.47;3.60;;;;;;;28.90;46.16;94504.28;5093809;28;20452;-83
2023/08/31 06:02:51;;;;;;;6.43;3.20;;;;;;;28.45;47.12;94501.00;5093937;28;20440;-87
2023/08/31 06:05:18;;;;;;;8.30;3.60;;;;;;;27.73;50.65;94508.03;5042006;28;20444;-85
2023/08/31 06:07:45;;;;;;;8.23;3.90;;;;;;;26.99;52.99;94515.34;5059083;28;20439;-86
2023/08/31 06:10:13;;;;;;;6.13;5.10;;;;;;;26.23;56.13;94511.03;5094328;28;20432;-89
2023/08/31 06:12:40;;;;;;;8.83;4.60;;;;;;;25.79;57.92;94515.16;5094565;28;20934;-86
2023/08/31 06:15:09;;;;;;;10.03;4.60;;;;;;;25.28;59.56;94514.69;5059154;28;20507;-86
2023/08/31 06:17:36;;;;;;;6.23;4.23;;;;;;;25.23;59.51;94519.94;5094955;28;20523;-86
2023/08/31 06:20:05;;;;;;;7.50;4.80;;;;;;;25.65;58.83;94514.53;5094076;28;20497;-85
2023/08/31 06:22:32;;;;;;;10.17;4.60;;;;;;;25.90;55.74;94509.78;5090601;28;20459;-86
2023/08/31 06:24:58;;;;;;;15.87;4.63;;;;;;;26.09;54.98;94517.72;5095501;28;20821;-83
2023/08/31 06:27:25;;;;;;;9.43;4.30;;;;;;;26.74;56.44;94522.91;5089769;28;20476;-85
2023/08/31 06:29:52;;;;;;;7.47;3.57;;;;;;;27.41;54.16;94520.41;5079378;28;20795;-84
2023/08/31 06:32:20;;;;;;;9.37;3.63;;;;;;;28.28;51.23;94519.94;5083577;28;20482;-85
2023/08/31 06:34:47;;;;;;;8.73;3.67;;;;;;;28.83;48.07;94529.81;5081622;28;20445;-86
2023/08/31 06:37:14;;;;;;;5.67;3.87;;;;;;;29.24;48.12;94547.38;5081794;28;20471;-84
2023/08/31 06:39:41;;;;;;;6.23;3.50;;;;;;;29.63;44.81;94541.81;5091004;28;21515;-86
2023/08/31 06:42:08;;;;;;;4.90;3.13;;;;;;;30.04;43.95;94541.09;5094004;28;20517;-85
2023/08/31 06:44:35;;;;;;;5.67;3.50;;;;;;;30.18;42.60;94538.78;5097848;28;20440;-86
2023/08/31 06:47:03;;;;;;;8.00;3.53;;;;;;;30.60;41.97;94548.75;5098856;28;20450;-85
2023/08/31 06:49:32;;;;;;;6.27;3.10;;;;;;;30.73;39.63;94542.91;5098222;28;20431;-85
2023/08/31 06:52:00;;;;;;;3.57;2.80;;;;;;;30.90;40.29;94548.94;5097138;28;20507;-85
2023/08/31 06:54:27;;;;;;;3.60;2.63;;;;;;;30.96;38.57;94544.38;5097138;28;20804;-86
2023/08/31 06:56:54;;;;;;;6.13;2.37;;;;;;;31.01;39.05;94541.69;5097791;28;20554;-86
2023/08/31 06:59:20;;;;;;;4.80;2.53;;;;;;;30.39;36.98;94553.25;5097157;28;20929;-86
2023/08/31 07:01:47;;;;;;;5.73;2.60;;;;;;;29.52;39.21;94544.44;5096705;28;20839;-85
2023/08/31 07:04:14;;;;;;;7.13;2.63;;;;;;;29.43;41.19;94551.31;5095976;28;20692;-85
2023/08/31 07:06:42;;;;;;;6.13;2.90;;;;;;;29.57;40.28;94549.88;5096185;28;20440;-86
2023/08/31 07:09:09;;;;;;;6.40;2.90;;;;;;;29.27;41.21;94557.66;5096715;28;20443;-86
2023/08/31 07:11:36;;;;;;;4.50;2.90;;;;;;;29.48;41.61;94556.00;5096664;28;20484;-84
2023/08/31 07:14:03;;;;;;;3.30;2.50;;;;;;;29.15;41.47;94549.69;5096628;28;20447;-84
2023/08/31 07:16:30;;;;;;;4.43;3.17;;;;;;;29.01;42.46;94547.63;5095879;28;20442;-84
2023/08/31 07:18:57;;;;;;;7.80;2.77;;;;;;;29.12;42.69;94554.78;5096028;28;20446;-85
2023/08/31 07:21:24;;;;;;;7.60;3.37;;;;;;;29.12;43.54;94571.00;5044137;28;20443;-83
2023/08/31 07:23:52;;;;;;;5.40;3.00;;;;;;;29.04;42.45;94563.34;5095646;28;20451;-84
2023/08/31 07:26:18;;;;;;;6.60;2.80;;;;;;;28.89;42.80;94562.06;5096128;28;20444;-83
2023/08/31 07:28:45;;;;;;;8.77;2.93;;;;;;;28.78;43.65;94564.88;5095950;28;20438;-83
2023/08/31 07:31:13;;;;;;;6.43;3.63;;;;;;;28.75;43.48;94570.78;5095781;28;20475;-82
2023/08/31 07:33:40;;;;;;;5.50;2.70;;;;;;;28.86;45.31;94567.97;5096186;28;20431;-83
2023/08/31 07:36:07;;;;;;;7.03;3.43;;;;;;;29.05;43.10;94565.78;5095626;28;20938;-82
2023/08/31 07:38:35;;;;;;;6.60;3.47;;;;;;;28.82;43.91;94569.53;5095510;28;20444;-83
2023/08/31 07:41:04;;;;;;;6.43;3.93;;;;;;;28.40;44.09;94565.72;5095189;28;20439;-82
2023/08/31 07:43:30;;;;;;;9.63;3.53;;;;;;;28.25;46.34;94555.53;5095421;28;20440;-82
2023/08/31 07:45:58;;;;;;;12.23;3.33;;;;;;;28.35;45.98;94563.78;5095151;28;20926;-79
2023/08/31 07:48:25;;;;;;;7.33;3.50;;;;;;;28.20;45.51;94574.31;5095113;28;20537;-83
2023/08/31 07:50:52;;;;;;;10.00;3.70;;;;;;;27.84;45.94;94571.06;5042912;28;20451;-82
2023/08/31 07:53:18;;;;;;;4.77;3.60;;;;;;;27.77;46.61;94565.81;5095250;28;20472;-82
2023/08/31 07:55:54;;;;;;;11.13;4.13;;;;;;;27.71;46.94;94565.97;5094578;28;20440;-83
2023/08/31 07:58:22;;;;;;;6.37;3.60;;;;;;;27.81;47.38;94562.63;5095305;28;20454;-83
2023/08/31 08:00:49;;;;;;;11.00;3.87;;;;;;;27.68;46.68;94569.97;5095379;28;20452;-83
2023/08/31 08:03:16;;;;;;;5.33;3.60;;;;;;;27.52;46.90;94569.94;5094989;28;20444;-84
2023/08/31 08:05:43;;;;;;;7.43;3.73;;;;;;;27.63;47.34;94567.19;5094848;28;20886;-83
2023/08/31 08:08:10;;;;;;;12.43;4.20;;;;;;;27.62;48.01;94573.66;5059183;28;20440;-86
2023/08/31 08:10:37;;;;;;;6.43;4.37;;;;;;;27.67;47.01;94568.34;5094916;28;20490;-82
2023/08/31 08:13:05;;;;;;;7.60;4.10;;;;;;;27.94;47.42;94567.69;5094656;28;20483;-83
2023/08/31 08:15:33;;;;;;;6.30;4.10;;;;;;;28.27;45.89;94573.09;5094850;28;20444;-82
2023/08/31 08:18:00;;;;;;;13.83;4.30;;;;;;;28.29;46.55;94570.97;5094954;28;20432;-82
2023/08/31 08:20:28;;;;;;;10.27;3.70;;;;;;;28.20;46.23;94572.44;5094723;28;20440;-82
2023/08/31 08:22:55;;;;;;;6.27;3.93;;;;;;;28.43;47.38;94568.75;5094761;28;20925;-82
2023/08/31 08:25:22;;;;;;;13.37;3.80;;;;;;;28.54;44.45;94564.28;5094404;28;20680;-82
2023/08/31 08:27:49;;;;;;;9.20;3.60;;;;;;;28.62;44.46;94566.56;5094696;28;20440;-84
2023/08/31 08:30:16;;;;;;;5.73;3.93;;;;;;;28.59;44.77;94558.97;5094526;28;20922;-79
2023/08/31 08:32:44;;;;;;;11.87;4.20;;;;;;;28.56;45.36;94560.28;5095560;28;20475;-87
2023/08/31 08:35:11;;;;;;;9.10;4.13;;;;;;;28.54;45.10;94554.31;5095398;28;20440;-85
2023/08/31 08:37:38;;;;;;;9.83;3.90;;;;;;;28.48;45.34;94549.91;5095092;28;20451;-85
2023/08/31 08:40:06;;;;;;;9.50;3.90;;;;;;;28.55;44.04;94552.44;5094069;28;20436;-83
2023/08/31 08:42:38;;;;;;;6.87;3.50;;;;;;;28.74;43.18;94561.88;5094687;28;20451;-84
2023/08/31 08:45:09;;;;;;;5.33;3.20;;;;;;;28.84;42.85;94559.28;5095041;28;20489;-86
2023/08/31 08:47:37;;;;;;;7.80;4.23;;;;;;;29.17;44.07;94560.25;5094959;28;20432;-84
2023/08/31 08:50:06;;;;;;;8.60;4.00;;;;;;;29.67;42.96;94561.88;5093221;28;20424;-84
2023/08/31 08:52:33;;;;;;;8.43;3.40;;;;;;;29.83;40.97;94555.53;4989180;28;20234;-83
2023/08/31 08:55:05;;;;;;;6.47;4.57;;;;;;;29.70;37.66;94545.13;5074008;28;20445;-84
2023/08/31 08:57:33;;;;;;;5.70;4.63;;;;;;;29.48;35.38;94551.41;5073990;28;20881;-84
2023/08/31 09:00:00;;;;;;;7.53;5.40;;;;;;;29.44;34.90;94544.88;5073734;28;20456;-83
2023/08/31 09:02:27;;;;;;;6.27;5.23;;;;;;;29.51;35.56;94542.00;5073653;28;20468;-83
2023/08/31 09:04:55;;;;;;;10.67;5.10;;;;;;;29.69;36.18;94544.31;5073092;28;20467;-84
2023/08/31 09:07:23;;;;;;;8.13;4.73;;;;;;;29.67;35.23;94541.03;5073290;28;20428;-83
2023/08/31 09:09:51;;;;;;;8.77;5.40;;;;;;;29.66;35.63;94547.53;5073607;28;20452;-83
2023/08/31 09:12:18;;;;;;;10.37;5.07;;;;;;;29.74;35.61;94547.03;5073932;28;20489;-82
2023/08/31 09:14:57;;;;;;;5.40;4.40;;;;;;;29.68;34.45;94545.38;5073173;28;20441;-82
2023/08/31 09:17:25;;;;;;;5.90;5.30;;;;;;;29.67;33.88;94532.94;5073258;28;20464;-83
2023/08/31 09:20:00;;;;;;;7.77;5.00;;;;;;;29.57;34.49;94536.38;5073123;28;20459;-83
2023/08/31 09:22:29;;;;;;;9.70;5.80;;;;;;;29.45;34.40;94534.88;5073812;28;20951;-83
2023/08/31 09:24:55;;;;;;;7.33;5.10;;;;;;;29.55;34.82;94538.50;5073608;28;20921;-82
2023/08/31 09:27:24;;;;;;;6.33;4.10;;;;;;;29.54;36.52;94536.06;5073273;28;20437;-84
2023/08/31 09:29:51;;;;;;;6.87;4.30;;;;;;;29.47;34.24;94533.56;5073917;28;20447;-83
2023/08/31 09:32:18;;;;;;;8.43;4.53;;;;;;;29.36;32.63;94539.91;5073602;28;20476;-83
2023/08/31 09:34:46;;;;;;;5.30;4.50;;;;;;;29.45;33.40;94543.81;5073791;28;20444;-83
2023/08/31 09:37:13;;;;;;;4.93;4.00;;;;;;;29.59;34.14;94533.41;5073581;28;20456;-82
2023/08/31 09:39:42;;;;;;;5.60;4.87;;;;;;;29.54;33.61;94533.38;5073332;28;20437;-82
2023/08/31 09:42:10;;;;;;;7.33;4.40;;;;;;;29.64;35.07;94535.34;5073418;28;20807;-82
2023/08/31 09:44:41;;;;;;;7.03;5.10;;;;;;;29.51;34.30;94523.88;5073613;28;20843;-84
2023/08/31 09:47:08;;;;;;;8.07;5.00;;;;;;;29.09;36.11;94523.69;5074170;28;20436;-83
2023/08/31 09:49:36;;;;;;;7.90;5.03;;;;;;;28.93;35.75;94524.59;5073917;28;20799;-83
2023/08/31 09:52:04;;;;;;;6.70;4.87;;;;;;;28.86;35.25;94519.38;5041045;28;20502;-83
2023/08/31 09:54:33;;;;;;;4.50;4.10;;;;;;;28.91;34.96;94527.56;5094006;28;20503;-82
2023/08/31 09:57:03;;;;;;;8.27;4.77;;;;;;;29.07;35.09;94530.41;5093576;28;20448;-83
2023/08/31 09:59:31;;;;;;;6.80;4.53;;;;;;;28.96;34.75;94519.50;5094601;28;20494;-89
2023/08/31 10:02:00;;;;;;;6.70;4.73;;;;;;;28.93;33.47;94530.81;5096116;28;20960;-87
2023/08/31 10:04:30;;;;;;;5.20;4.00;;;;;;;28.89;35.22;94529.66;5097240;28;20443;-90
2023/08/31 10:06:57;;;;;;;5.23;4.70;;;;;;;28.96;33.90;94533.00;5095835;28;20483;-91
2023/08/31 10:09:25;;;;;;;8.90;4.40;;;;;;;29.05;34.23;94521.75;5043199;28;20436;-90
2023/08/31 10:11:53;;;;;;;7.90;4.63;;;;;;;29.07;36.35;94517.72;5094850;28;20479;-87
2023/08/31 10:14:22;;;;;;;5.90;4.73;;;;;;;29.12;35.92;94520.47;5093638;28;20894;-87
2023/08/31 10:16:52;;;;;;;11.00;6.13;;;;;;;29.21;35.93;94527.06;5093383;28;20440;-85
2023/08/31 10:19:19;;;;;;;7.10;4.57;;;;;;;29.24;35.70;94517.63;5100259;28;20894;-86
2023/08/31 10:21:46;;;;;;;6.60;4.03;;;;;;;29.31;37.78;94515.53;5100590;28;20436;-86
2023/08/31 10:24:13;;;;;;;9.07;4.83;;;;;;;29.20;39.72;94520.03;5099096;28;20451;-89
2023/08/31 10:26:39;;;;;;;5.93;4.40;;;;;;;29.08;36.16;94521.22;5102801;28;20863;-92
2023/08/31 10:29:06;;;;;;;7.80;5.13;;;;;;;28.75;40.01;94512.19;5099132;28;20452;-87
2023/08/31 10:31:35;;;;;;;7.10;4.73;;;;;;;28.66;37.92;94519.09;5093462;28;20806;-84
2023/08/31 10:34:04;;;;;;;5.77;4.70;;;;;;;28.75;38.99;94527.56;5093015;28;20467;-84
2023/08/31 10:36:39;;;;;;;7.63;5.43;;;;;;;28.96;45.11;94527.59;5092780;28;20443;-83
2023/08/31 10:39:13;;;;;;;7.17;5.40;;;;;;;29.05;39.37;94527.16;5093060;28;20439;-84
2023/08/31 10:41:41;;;;;;;5.87;4.87;;;;;;;28.94;41.15;94527.03;5094331;28;20493;-84
2023/08/31 10:44:21;;;;;;;13.03;5.07;;;;;;;28.63;35.91;94530.41;5093716;28;20805;-84
2023/08/31 10:46:50;;;;;;;7.50;4.47;;;;;;;28.44;36.34;94531.78;5092605;28;20451;-83
2023/08/31 10:49:18;;;;;;;6.80;5.70;;;;;;;28.36;37.44;94541.13;5092811;28;20450;-83
2023/08/31 10:51:47;;;;;;;7.77;5.30;;;;;;;28.30;36.78;94537.50;5092037;28;20436;-84
2023/08/31 10:54:21;;;;;;;9.23;5.63;;;;;;;28.23;39.36;94528.75;5041885;28;20450;-84
2023/08/31 10:57:05;;;;;;;7.20;4.97;;;;;;;28.31;38.45;94538.31;5093085;28;20451;-85
2023/08/31 10:59:50;;;;;;;5.03;4.50;;;;;;;28.37;36.77;94532.78;5092767;28;20469;-85
2023/08/31 11:02:35;;;;;;;8.27;5.03;;;;;;;28.53;36.58;94527.56;5092540;28;20542;-86
2023/08/31 11:05:06;;;;;;;6.47;5.50;;;;;;;28.65;36.88;94529.09;5092876;28;20523;-85
2023/08/31 11:07:35;;;;;;;5.77;4.53;;;;;;;28.74;35.17;94526.75;5092930;28;20450;-85
2023/08/31 11:10:10;;;;;;;7.63;5.80;;;;;;;28.70;37.12;94531.03;5092861;28;20483;-85
2023/08/31 11:12:37;;;;;;;8.33;4.97;;;;;;;28.49;37.70;94535.34;5093014;28;20980;-85
2023/08/31 11:15:05;;;;;;;12.80;5.80;;;;;;;28.34;35.10;94529.75;5092647;28;20443;-84
2023/08/31 11:17:34;;;;;;;7.13;5.00;;;;;;;28.23;36.05;94530.63;5093005;28;20448;-85
2023/08/31 11:20:05;;;;;;;7.80;4.97;;;;;;;28.19;38.24;94541.09;5092329;28;20436;-85
2023/08/31 11:22:33;;;;;;;6.30;5.40;;;;;;;28.12;35.87;94529.69;5093080;28;20441;-86
2023/08/31 11:25:00;;;;;;;15.07;6.93;;;;;;;27.94;36.63;94519.97;5092853;28;20466;-86
2023/08/31 11:27:27;;;;;;;15.00;7.13;;;;;;;27.90;37.62;94521.53;5092945;28;20489;-85
2023/08/31 11:29:54;;;;;;;59.03;18.40;;;;;;;28.00;41.91;94528.94;5093978;28;20968;-85
2023/08/31 11:32:24;;;;;;;27.07;10.20;;;;;;;28.03;38.73;94520.34;5095905;28;20476;-85
2023/08/31 11:34:52;;;;;;;11.27;6.60;;;;;;;28.12;38.43;94526.97;5096356;28;20454;-85
2023/08/31 11:37:20;;;;;;;43.13;24.50;;;;;;;28.30;39.64;94532.13;5096024;28;20432;-84